Time;durP1;ratioP1;P1;durP2;ratioP2;P2;SDS_P1;SDS_P2;PMS_P1;PMS_P2;Temp;Humidity;BMP_temperature;BMP_pressure;BME280_temperature;BME280_humidity;BME280_pressure;Samples;Min_cycle;Max_cycle;Signal;HPM_P1;HPM_P2
2023/03/25 00:01:08;;;;;;;7.88;2.30;;;;;;;7.57;100.00;100089.78;6290215;22;20008;-80
2023/03/25 00:03:40;;;;;;;9.90;2.65;;;;;;;7.66;100.00;100081.38;6243423;22;20012;-81
2023/03/25 00:06:11;;;;;;;8.00;2.70;;;;;;;7.70;100.00;100082.94;6268526;22;20027;-80
2023/03/25 00:08:37;;;;;;;7.07;2.83;;;;;;;7.80;100.00;100086.81;6268806;22;20003;-80
2023/03/25 00:11:03;;;;;;;9.77;2.80;;;;;;;7.77;100.00;100071.06;6243939;22;20010;-81
2023/03/25 00:13:30;;;;;;;11.88;3.40;;;;;;;7.79;100.00;100077.16;6271268;22;20003;-81
2023/03/25 00:15:57;;;;;;;9.75;2.88;;;;;;;7.84;100.00;100079.56;6271390;22;20071;-82
2023/03/25 00:18:28;;;;;;;7.43;2.83;;;;;;;7.88;98.81;100083.75;6269886;22;20000;-81
2023/03/25 00:20:54;;;;;;;8.18;2.97;;;;;;;7.88;98.36;100092.56;6242909;22;20496;-80
2023/03/25 00:23:20;;;;;;;6.90;2.20;;;;;;;7.90;97.57;100077.47;6268881;22;20006;-80
2023/03/25 00:25:46;;;;;;;6.35;2.47;;;;;;;7.92;97.39;100083.53;6269601;22;20003;-81
2023/03/25 00:28:13;;;;;;;9.88;2.88;;;;;;;7.87;97.98;100077.63;6268937;22;20004;-81
2023/03/25 00:30:40;;;;;;;6.47;2.55;;;;;;;7.82;98.40;100074.34;6268699;22;20081;-81
2023/03/25 00:33:09;;;;;;;7.45;2.50;;;;;;;7.73;98.99;100080.97;6241733;22;20340;-81
2023/03/25 00:35:36;;;;;;;7.32;2.42;;;;;;;7.75;98.60;100075.59;6269730;22;19995;-81
2023/03/25 00:38:01;;;;;;;6.30;2.40;;;;;;;7.68;98.75;100074.19;6268667;22;20015;-81
2023/03/25 00:40:29;;;;;;;9.07;2.67;;;;;;;7.63;98.91;100066.47;6269508;22;20011;-81
2023/03/25 00:42:56;;;;;;;8.10;2.10;;;;;;;7.62;99.26;100064.78;6269445;22;20023;-82
2023/03/25 00:45:22;;;;;;;7.05;2.42;;;;;;;7.68;99.62;100067.09;6269546;22;20009;-81
2023/03/25 00:47:47;;;;;;;6.53;2.53;;;;;;;7.63;100.00;100074.44;6268066;22;20007;-82
2023/03/25 00:50:13;;;;;;;6.95;2.55;;;;;;;7.63;100.00;100070.91;6269090;22;20030;-81
2023/03/25 00:52:39;;;;;;;7.20;2.80;;;;;;;7.70;99.47;100067.03;6268990;22;20339;-81
2023/03/25 00:55:05;;;;;;;7.28;2.67;;;;;;;7.67;100.00;100061.88;6269661;22;20011;-82
2023/03/25 00:57:31;;;;;;;5.03;2.60;;;;;;;7.64;99.88;100064.69;6268710;22;20003;-82
2023/03/25 00:59:56;;;;;;;4.68;2.55;;;;;;;7.69;99.58;100066.19;6242555;22;20008;-82
2023/03/25 01:02:22;;;;;;;8.00;2.58;;;;;;;7.69;99.69;100067.94;6267797;22;20069;-81
2023/03/25 01:04:48;;;;;;;10.38;2.83;;;;;;;7.63;99.26;100061.19;6242674;22;20018;-81
2023/03/25 01:07:19;;;;;;;6.10;2.67;;;;;;;7.62;99.66;100063.91;6242507;22;20012;-83
2023/03/25 01:09:46;;;;;;;5.65;2.30;;;;;;;7.58;99.72;100057.06;6268741;22;20008;-81
2023/03/25 01:12:15;;;;;;;7.88;2.70;;;;;;;7.63;99.75;100065.63;6270229;22;20011;-81
2023/03/25 01:14:41;;;;;;;6.88;2.22;;;;;;;7.69;99.30;100065.28;6269177;22;20010;-81
2023/03/25 01:17:06;;;;;;;6.50;2.50;;;;;;;7.70;100.00;100064.38;6241818;22;20003;-81
2023/03/25 01:19:32;;;;;;;7.65;2.40;;;;;;;7.62;100.00;100064.78;6267659;22;20007;-81
2023/03/25 01:21:57;;;;;;;6.30;2.67;;;;;;;7.60;100.00;100057.81;6275335;22;20053;-80
2023/03/25 01:24:22;;;;;;;4.95;2.55;;;;;;;7.55;99.55;100068.66;6278215;22;20007;-80
2023/03/25 01:26:48;;;;;;;5.90;2.40;;;;;;;7.51;100.00;100055.66;6279035;22;20412;-81
2023/03/25 01:29:16;;;;;;;4.38;2.35;;;;;;;7.47;99.61;100057.59;6276970;22;20011;-81
2023/03/25 01:31:41;;;;;;;4.03;2.00;;;;;;;7.49;99.29;100061.88;6279972;22;20022;-80
2023/03/25 01:34:08;;;;;;;4.28;2.35;;;;;;;7.49;99.16;100061.88;6272241;22;20023;-80
2023/03/25 01:36:34;;;;;;;3.90;2.00;;;;;;;7.44;99.93;100058.63;6270223;22;20027;-80
2023/03/25 01:39:01;;;;;;;4.82;2.30;;;;;;;7.42;100.00;100057.84;6270022;22;20023;-80
2023/03/25 01:41:28;;;;;;;4.70;2.40;;;;;;;7.39;99.87;100055.31;6236985;23;20061;-81
2023/03/25 01:44:03;;;;;;;6.15;2.40;;;;;;;7.38;100.00;100066.00;6238933;22;20062;-80
2023/03/25 01:46:28;;;;;;;4.07;2.08;;;;;;;7.39;99.93;100065.91;6235766;23;20008;-81
2023/03/25 01:48:54;;;;;;;7.82;2.38;;;;;;;7.40;100.00;100062.38;6236941;22;20139;-81
2023/03/25 01:51:25;;;;;;;3.97;2.10;;;;;;;7.40;100.00;100064.16;6238049;22;20000;-81
2023/03/25 01:53:52;;;;;;;8.52;3.08;;;;;;;7.48;99.27;100064.59;6238693;22;20026;-82
2023/03/25 01:56:22;;;;;;;6.18;2.42;;;;;;;7.47;99.14;100054.94;6238224;22;20031;-81
2023/03/25 01:58:50;;;;;;;4.05;2.13;;;;;;;7.55;98.85;100059.84;6236577;22;20421;-81
2023/03/25 02:01:20;;;;;;;5.68;2.22;;;;;;;7.53;99.28;100062.59;6236847;22;20026;-82
2023/03/25 02:03:51;;;;;;;3.92;2.03;;;;;;;7.49;98.88;100050.44;6238378;22;20004;-82
2023/03/25 02:06:25;;;;;;;4.05;2.03;;;;;;;7.51;99.14;100060.94;6236818;22;20000;-82
2023/03/25 02:08:53;;;;;;;4.63;2.22;;;;;;;7.52;99.54;100062.66;6235731;22;20030;-82
2023/03/25 02:11:18;;;;;;;4.60;2.28;;;;;;;7.51;99.51;100061.81;6238069;22;20004;-81
2023/03/25 02:13:44;;;;;;;4.75;2.10;;;;;;;7.47;99.50;100049.66;6235028;23;20015;-81
2023/03/25 02:16:25;;;;;;;5.00;2.20;;;;;;;7.53;99.95;100059.09;6237696;22;20000;-83
2023/03/25 02:19:09;;;;;;;4.97;2.28;;;;;;;7.48;99.63;100044.31;6235743;23;20083;-82
2023/03/25 02:21:49;;;;;;;6.00;2.42;;;;;;;7.52;99.84;100055.56;6240156;22;20006;-83
2023/03/25 02:24:34;;;;;;;5.57;2.53;;;;;;;7.52;99.72;100057.34;6250909;23;20092;-81
2023/03/25 02:27:13;;;;;;;5.15;2.38;;;;;;;7.55;99.44;100050.13;6251936;22;20008;-82
2023/03/25 02:30:01;;;;;;;4.93;2.58;;;;;;;7.57;99.41;100050.06;6244811;23;20012;-80
2023/03/25 02:33:04;;;;;;;3.42;2.10;;;;;;;7.58;99.52;100055.28;6242813;22;20007;-81
2023/03/25 02:35:35;;;;;;;3.55;1.92;;;;;;;7.61;98.66;100044.53;6243216;23;20004;-81
2023/03/25 02:38:13;;;;;;;5.03;2.40;;;;;;;7.61;98.56;100049.81;6239761;23;20004;-80
2023/03/25 02:40:55;;;;;;;4.90;2.45;;;;;;;7.61;99.07;100044.53;6241161;22;20028;-81
2023/03/25 02:43:33;;;;;;;7.10;2.40;;;;;;;7.57;100.00;100048.28;6241283;22;20019;-81
2023/03/25 02:46:04;;;;;;;5.85;2.00;;;;;;;7.53;100.00;100041.41;6239933;22;20384;-81
2023/03/25 02:48:36;;;;;;;6.07;2.15;;;;;;;7.49;100.00;100053.94;6238652;23;20039;-81
2023/03/25 02:51:09;;;;;;;4.68;2.35;;;;;;;7.34;100.00;100044.13;6239899;23;20012;-82
2023/03/25 02:53:36;;;;;;;3.65;2.13;;;;;;;7.22;100.00;100048.22;6241444;22;20011;-80
2023/03/25 02:56:09;;;;;;;8.63;2.40;;;;;;;7.11;100.00;100039.13;6241477;22;20429;-82
2023/03/25 02:58:37;;;;;;;7.47;2.58;;;;;;;7.06;100.00;100026.09;6237822;23;20008;-80
2023/03/25 03:01:02;;;;;;;6.65;2.40;;;;;;;7.04;100.00;100050.94;6239728;22;20014;-80
2023/03/25 03:03:28;;;;;;;5.30;2.40;;;;;;;7.05;100.00;100028.84;6238339;23;20032;-82
2023/03/25 03:05:58;;;;;;;7.28;2.65;;;;;;;7.14;100.00;100036.31;6240379;22;20004;-82
2023/03/25 03:08:47;;;;;;;8.30;2.78;;;;;;;7.19;100.00;100034.28;6239397;22;20031;-80
2023/03/25 03:11:26;;;;;;;7.82;2.92;;;;;;;7.24;100.00;100032.28;6240027;22;20016;-80
2023/03/25 03:14:13;;;;;;;6.07;2.75;;;;;;;7.28;100.00;100033.84;6239156;22;20024;-81
2023/03/25 03:16:59;;;;;;;6.20;2.40;;;;;;;7.26;100.00;100030.41;6239456;22;20105;-81
2023/03/25 03:19:36;;;;;;;7.90;2.63;;;;;;;7.30;100.00;100033.78;6237222;23;20440;-81
2023/03/25 03:22:07;;;;;;;7.18;2.50;;;;;;;7.31;100.00;100031.03;6237504;23;20094;-82
2023/03/25 03:24:37;;;;;;;7.28;2.92;;;;;;;7.30;100.00;100021.38;6237577;23;20061;-82
2023/03/25 03:27:15;;;;;;;8.63;2.95;;;;;;;7.32;100.00;100026.63;6238755;22;20421;-82
2023/03/25 03:30:14;;;;;;;7.50;2.60;;;;;;;7.31;100.00;100016.94;6239484;22;20127;-83
2023/03/25 03:32:48;;;;;;;6.25;2.72;;;;;;;7.32;100.00;100031.91;6230479;23;20490;-82
2023/03/25 03:35:22;;;;;;;;;;;;;;;7.40;100.00;100029.75;6240173;22;20055;-82
2023/03/25 03:37:56;;;;;;;8.27;2.80;;;;;;;7.36;100.00;100036.13;6239057;22;19914;-81
2023/03/25 03:40:23;;;;;;;7.93;3.10;;;;;;;7.38;100.00;100043.03;6242135;22;20016;-80
2023/03/25 03:42:57;;;;;;;6.93;2.67;;;;;;;7.37;100.00;100032.53;6280771;22;20063;-81
2023/03/25 03:45:29;;;;;;;7.97;2.83;;;;;;;7.34;100.00;100022.94;6287782;22;20004;-80
2023/03/25 03:47:57;;;;;;;11.27;3.40;;;;;;;7.39;100.00;100023.56;6288032;22;20011;-79
2023/03/25 03:50:37;;;;;;;8.82;3.00;;;;;;;7.38;100.00;100037.75;6285825;22;20003;-80
2023/03/25 03:53:19;;;;;;;9.05;2.63;;;;;;;7.15;100.00;100033.63;6259308;22;20015;-80
2023/03/25 03:55:51;;;;;;;9.40;3.15;;;;;;;6.92;100.00;100034.72;6276545;22;20004;-80
2023/03/25 03:58:32;;;;;;;7.85;2.58;;;;;;;6.90;100.00;100035.75;6272245;22;20014;-80
2023/03/25 04:01:09;;;;;;;10.00;2.70;;;;;;;6.84;100.00;100044.81;6246757;22;20201;-80
2023/03/25 04:03:48;;;;;;;10.68;2.65;;;;;;;6.81;100.00;100047.59;6271929;22;20012;-80
2023/03/25 04:06:23;;;;;;;14.50;3.15;;;;;;;6.74;100.00;100044.41;6271440;22;20353;-80
2023/03/25 04:09:08;;;;;;;8.50;2.70;;;;;;;6.76;100.00;100049.63;6270694;22;20059;-80
2023/03/25 04:11:42;;;;;;;11.70;3.22;;;;;;;6.79;100.00;100046.84;6269033;22;20010;-81
2023/03/25 04:14:09;;;;;;;8.18;2.90;;;;;;;6.80;100.00;100040.59;6268484;22;20018;-80
2023/03/25 04:16:36;;;;;;;10.05;2.78;;;;;;;6.81;100.00;100042.31;6266959;22;19999;-81
2023/03/25 04:19:04;;;;;;;9.90;3.22;;;;;;;6.91;100.00;100050.69;6267802;22;20012;-81
2023/03/25 04:21:30;;;;;;;7.05;2.53;;;;;;;6.91;100.00;100043.59;6240893;22;20000;-82
2023/03/25 04:23:55;;;;;;;9.73;2.78;;;;;;;6.94;100.00;100045.25;6242731;22;20061;-81
2023/03/25 04:26:21;;;;;;;10.48;2.80;;;;;;;6.96;100.00;100046.03;6268486;22;20004;-80
2023/03/25 04:28:46;;;;;;;6.63;2.50;;;;;;;7.01;100.00;100051.09;6269871;22;20134;-80
2023/03/25 04:31:15;;;;;;;10.18;2.90;;;;;;;7.05;100.00;100050.00;6269678;22;20540;-80
2023/03/25 04:33:47;;;;;;;8.38;2.63;;;;;;;7.04;100.00;100046.50;6268344;22;20010;-81
2023/03/25 04:36:13;;;;;;;9.02;2.60;;;;;;;7.10;100.00;100040.03;6240800;22;20000;-82
2023/03/25 04:38:39;;;;;;;7.70;2.75;;;;;;;7.09;100.00;100038.34;6267084;22;20014;-82
2023/03/25 04:41:05;;;;;;;6.95;2.10;;;;;;;7.11;100.00;100032.06;6268010;22;20003;-81
2023/03/25 04:43:31;;;;;;;8.65;2.33;;;;;;;7.04;100.00;100056.22;6265313;22;19999;-80
2023/03/25 04:45:58;;;;;;;7.95;2.63;;;;;;;6.81;100.00;100036.16;6265715;22;20261;-82
2023/03/25 04:48:30;;;;;;;7.07;2.42;;;;;;;6.70;100.00;100039.34;6236634;22;20089;-81
2023/03/25 04:50:57;;;;;;;7.25;2.35;;;;;;;6.62;100.00;100036.22;6277742;22;20363;-80
2023/03/25 04:53:26;;;;;;;8.55;2.55;;;;;;;6.56;100.00;100039.13;6284544;22;20004;-81
2023/03/25 04:55:52;;;;;;;9.50;2.20;;;;;;;6.57;100.00;100039.06;6285738;22;20098;-80
2023/03/25 04:58:18;;;;;;;9.73;2.53;;;;;;;6.59;100.00;100041.63;6278832;22;20354;-81
2023/03/25 05:00:48;;;;;;;7.43;2.45;;;;;;;6.64;100.00;100037.84;6269342;22;20007;-81
2023/03/25 05:03:14;;;;;;;6.97;2.47;;;;;;;6.64;100.00;100032.53;6269236;22;20018;-80
2023/03/25 05:05:40;;;;;;;7.30;2.60;;;;;;;6.65;100.00;100047.50;6241902;22;20470;-81
2023/03/25 05:08:06;;;;;;;10.45;2.72;;;;;;;6.57;100.00;100035.56;6269556;22;20478;-81
2023/03/25 05:10:34;;;;;;;6.70;2.55;;;;;;;6.54;100.00;100031.28;6269322;22;20015;-82
2023/03/25 05:13:05;;;;;;;8.48;2.72;;;;;;;6.48;100.00;100027.16;6268838;22;20078;-81
2023/03/25 05:15:34;;;;;;;6.63;2.75;;;;;;;6.47;100.00;100029.84;6267641;22;20075;-80
2023/03/25 05:18:01;;;;;;;6.13;2.20;;;;;;;6.44;100.00;100024.72;6268185;22;20000;-80
2023/03/25 05:20:26;;;;;;;8.75;2.97;;;;;;;6.45;100.00;100029.06;6268900;22;20402;-80
2023/03/25 05:22:52;;;;;;;6.10;2.72;;;;;;;6.44;100.00;100030.84;6269629;22;20410;-80
2023/03/25 05:25:21;;;;;;;7.65;2.53;;;;;;;6.46;100.00;100026.34;6268800;22;20029;-82
2023/03/25 05:27:46;;;;;;;6.78;2.53;;;;;;;6.45;100.00;100032.56;6241799;22;20015;-82
2023/03/25 05:30:12;;;;;;;7.07;2.42;;;;;;;6.47;100.00;100043.91;6269573;22;20440;-80
2023/03/25 05:32:39;;;;;;;8.90;2.47;;;;;;;6.52;100.00;100045.47;6268945;22;20011;-81
2023/03/25 05:35:06;;;;;;;7.55;2.55;;;;;;;6.59;100.00;100044.28;6269017;22;20015;-80
2023/03/25 05:37:31;;;;;;;8.73;2.80;;;;;;;6.65;100.00;100042.22;6267481;22;20149;-79
2023/03/25 05:39:57;;;;;;;8.82;2.75;;;;;;;6.74;100.00;100056.78;6267611;22;20004;-81
2023/03/25 05:42:23;;;;;;;7.95;2.78;;;;;;;6.77;100.00;100061.06;6267239;22;20016;-81
2023/03/25 05:44:50;;;;;;;5.78;2.42;;;;;;;6.79;100.00;100057.41;6241271;22;20404;-81
2023/03/25 05:47:22;;;;;;;8.90;2.85;;;;;;;6.80;100.00;100056.47;6267976;22;20007;-82
2023/03/25 05:49:49;;;;;;;10.45;3.42;;;;;;;6.87;100.00;100062.34;6268671;22;20019;-82
2023/03/25 05:52:15;;;;;;;6.85;2.58;;;;;;;6.93;100.00;100069.97;6267600;22;20026;-81
2023/03/25 05:54:42;;;;;;;8.48;3.03;;;;;;;6.98;100.00;100067.94;6267403;22;20003;-81
2023/03/25 05:57:08;;;;;;;7.28;2.70;;;;;;;7.01;100.00;100064.31;6267679;22;20020;-80
2023/03/25 05:59:37;;;;;;;5.50;2.65;;;;;;;7.00;100.00;100066.09;6268772;22;20004;-80
2023/03/25 06:02:06;;;;;;;6.95;2.75;;;;;;;7.06;100.00;100070.22;6269100;22;20003;-80
2023/03/25 06:04:32;;;;;;;7.85;2.97;;;;;;;7.07;100.00;100082.56;6267920;22;20054;-81
2023/03/25 06:06:58;;;;;;;6.60;2.60;;;;;;;7.15;100.00;100073.31;6266743;22;20283;-81
2023/03/25 06:09:23;;;;;;;8.55;3.30;;;;;;;7.17;100.00;100075.88;6268146;22;20007;-80
2023/03/25 06:11:52;;;;;;;7.05;2.50;;;;;;;7.12;100.00;100083.19;6270058;22;20003;-81
2023/03/25 06:14:17;;;;;;;9.68;2.72;;;;;;;7.11;100.00;100065.59;6269154;22;20000;-81
2023/03/25 06:16:43;;;;;;;6.93;2.70;;;;;;;7.09;100.00;100078.03;6268864;22;20008;-80
2023/03/25 06:19:08;;;;;;;8.18;3.20;;;;;;;7.04;100.00;100083.56;6268331;22;20031;-81
2023/03/25 06:21:34;;;;;;;9.40;2.65;;;;;;;6.93;100.00;100070.81;6252807;22;19991;-79
2023/03/25 06:24:02;;;;;;;10.52;3.17;;;;;;;6.94;100.00;100082.28;6288374;22;20015;-80
2023/03/25 06:26:28;;;;;;;11.15;3.30;;;;;;;6.96;100.00;100083.06;6286642;22;20015;-81
2023/03/25 06:28:54;;;;;;;11.00;3.80;;;;;;;6.91;100.00;100077.13;6282522;22;20087;-81
2023/03/25 06:31:27;;;;;;;10.00;3.28;;;;;;;6.95;100.00;100084.84;6273219;22;20008;-81
2023/03/25 06:33:53;;;;;;;9.02;2.75;;;;;;;7.02;100.00;100090.69;6270598;22;20003;-82
2023/03/25 06:36:19;;;;;;;7.22;2.85;;;;;;;6.99;100.00;100077.63;6241868;22;20004;-81
2023/03/25 06:38:49;;;;;;;8.63;3.10;;;;;;;6.99;100.00;100083.78;6270538;22;20003;-81
2023/03/25 06:41:19;;;;;;;8.48;3.15;;;;;;;7.06;100.00;100079.03;6271234;22;20015;-82
2023/03/25 06:43:45;;;;;;;9.05;3.10;;;;;;;7.10;100.00;100090.31;6271335;22;20062;-80
2023/03/25 06:46:11;;;;;;;10.15;3.53;;;;;;;7.17;99.93;100091.75;6268574;22;20440;-80
2023/03/25 06:48:37;;;;;;;9.85;3.28;;;;;;;7.28;99.55;100096.53;6269163;22;20004;-80
2023/03/25 06:51:02;;;;;;;8.55;2.78;;;;;;;7.36;98.39;100089.06;6269124;22;20143;-81
2023/03/25 06:53:28;;;;;;;11.75;3.30;;;;;;;7.39;98.77;100102.97;6267996;22;19999;-81
2023/03/25 06:55:56;;;;;;;9.73;3.35;;;;;;;7.52;97.03;100083.84;6268176;22;20011;-81
2023/03/25 06:58:21;;;;;;;10.85;3.38;;;;;;;7.49;97.24;100085.72;6269334;22;20003;-81
2023/03/25 07:00:52;;;;;;;11.00;3.42;;;;;;;7.61;96.89;100100.16;6269453;22;20079;-81
2023/03/25 07:03:18;;;;;;;8.55;3.10;;;;;;;7.65;96.15;100103.47;6269035;22;20007;-81
2023/03/25 07:05:43;;;;;;;8.85;3.25;;;;;;;7.70;95.89;100090.88;6267147;22;20357;-82
2023/03/25 07:08:08;;;;;;;9.15;2.92;;;;;;;7.76;96.48;100095.00;6270168;22;19999;-82
2023/03/25 07:10:34;;;;;;;11.48;3.35;;;;;;;7.76;95.06;100097.63;6269819;22;20004;-81
2023/03/25 07:12:59;;;;;;;12.10;3.60;;;;;;;7.73;95.43;100080.09;6274241;22;20504;-81
2023/03/25 07:15:24;;;;;;;7.55;2.95;;;;;;;7.79;94.83;100105.44;6288020;22;20718;-81
2023/03/25 07:17:50;;;;;;;11.68;3.20;;;;;;;7.87;95.84;100111.22;6288265;22;20011;-81
2023/03/25 07:20:15;;;;;;;9.43;3.22;;;;;;;7.93;95.30;100097.63;6257098;22;20280;-82
2023/03/25 07:22:41;;;;;;;14.00;3.55;;;;;;;8.08;94.51;100095.97;6268549;22;20008;-81
2023/03/25 07:25:07;;;;;;;12.10;3.17;;;;;;;8.24;94.40;100096.91;6268494;22;20011;-82
2023/03/25 07:27:32;;;;;;;14.60;3.70;;;;;;;8.62;93.23;100091.34;6269923;22;20349;-82
2023/03/25 07:29:57;;;;;;;10.95;3.15;;;;;;;8.85;90.73;100084.75;6270992;22;20008;-82
2023/03/25 07:32:23;;;;;;;18.00;3.30;;;;;;;9.14;90.10;100099.91;6271457;22;20049;-81
2023/03/25 07:34:48;;;;;;;15.80;3.53;;;;;;;9.03;91.91;100104.97;6270836;22;20332;-82
2023/03/25 07:37:14;;;;;;;12.13;3.22;;;;;;;8.56;96.04;100105.78;6268598;22;20010;-82
2023/03/25 07:39:39;;;;;;;14.30;3.63;;;;;;;8.13;96.66;100109.84;6242287;22;20449;-82
2023/03/25 07:42:05;;;;;;;12.80;3.58;;;;;;;7.82;98.71;100122.03;6268158;22;20026;-81
2023/03/25 07:44:31;;;;;;;13.35;3.63;;;;;;;7.66;100.00;100108.72;6267836;22;20000;-81
2023/03/25 07:46:56;;;;;;;14.77;3.55;;;;;;;7.60;100.00;100110.78;6266908;22;20090;-81
2023/03/25 07:49:21;;;;;;;14.73;3.90;;;;;;;7.47;100.00;100124.66;6267316;22;20004;-81
2023/03/25 07:51:47;;;;;;;16.15;4.00;;;;;;;7.27;100.00;100115.97;6241586;22;20097;-81
2023/03/25 07:54:12;;;;;;;15.48;3.85;;;;;;;7.09;100.00;100113.28;6268282;22;20130;-81
2023/03/25 07:56:37;;;;;;;11.43;4.25;;;;;;;7.02;100.00;100108.34;6240303;22;20004;-80
2023/03/25 07:59:04;;;;;;;12.63;4.03;;;;;;;6.96;100.00;100128.88;6268680;22;20042;-81
2023/03/25 08:01:29;;;;;;;13.40;3.55;;;;;;;7.05;100.00;100114.38;6268312;22;20003;-81
2023/03/25 08:03:55;;;;;;;13.18;3.67;;;;;;;7.13;100.00;100108.72;6267836;22;20014;-80
2023/03/25 08:06:21;;;;;;;13.27;5.10;;;;;;;7.27;100.00;100126.56;6266919;22;20006;-81
2023/03/25 08:08:46;;;;;;;12.23;3.75;;;;;;;7.56;100.00;100138.38;6268815;22;20003;-81
2023/03/25 08:11:11;;;;;;;12.77;4.05;;;;;;;7.66;100.00;100135.19;6268157;22;20027;-81
2023/03/25 08:13:37;;;;;;;8.85;3.33;;;;;;;7.69;100.00;100148.28;6268299;22;20357;-81
2023/03/25 08:16:10;;;;;;;11.60;3.70;;;;;;;7.72;100.00;100145.47;6267202;22;19995;-80
2023/03/25 08:18:35;;;;;;;13.80;4.25;;;;;;;7.63;100.00;100139.78;6267129;22;20043;-82
2023/03/25 08:21:02;;;;;;;14.50;3.80;;;;;;;7.42;100.00;100153.16;6268308;22;20074;-81
2023/03/25 08:23:27;;;;;;;15.45;4.45;;;;;;;7.24;100.00;100146.09;6240616;22;20008;-82
2023/03/25 08:25:53;;;;;;;15.10;4.50;;;;;;;7.00;100.00;100145.47;6268466;22;20554;-82
2023/03/25 08:28:23;;;;;;;16.63;4.75;;;;;;;6.97;100.00;100156.19;6266372;22;20449;-82
2023/03/25 08:30:53;;;;;;;15.85;4.30;;;;;;;6.94;100.00;100159.00;6269885;22;20230;-81
2023/03/25 08:33:20;;;;;;;20.05;4.93;;;;;;;6.86;100.00;100151.44;6276245;22;20004;-81
2023/03/25 08:35:46;;;;;;;17.52;4.60;;;;;;;6.92;100.00;100161.72;6276597;22;20060;-80
2023/03/25 08:38:12;;;;;;;16.88;4.53;;;;;;;6.90;100.00;100147.72;6275197;22;20084;-82
2023/03/25 08:40:38;;;;;;;21.70;5.22;;;;;;;6.92;100.00;100180.22;6254790;22;20012;-82
2023/03/25 08:43:05;;;;;;;21.58;5.40;;;;;;;6.88;100.00;100176.00;6282686;22;20011;-82
2023/03/25 08:45:35;;;;;;;16.35;5.20;;;;;;;6.83;100.00;100161.28;6276039;22;20003;-85
2023/03/25 08:48:01;;;;;;;16.23;4.30;;;;;;;6.83;100.00;100158.66;6269577;22;20015;-83
2023/03/25 08:50:27;;;;;;;17.55;4.63;;;;;;;6.87;100.00;100166.38;6256456;22;20000;-82
2023/03/25 08:52:57;;;;;;;20.88;5.15;;;;;;;6.97;100.00;100166.78;6259524;22;19999;-82
2023/03/25 08:55:24;;;;;;;16.80;4.93;;;;;;;7.06;100.00;100173.44;6282397;22;19996;-81
2023/03/25 08:57:52;;;;;;;17.80;4.65;;;;;;;7.23;100.00;100176.13;6279399;22;20011;-81
2023/03/25 09:00:22;;;;;;;20.23;5.38;;;;;;;7.43;100.00;100175.19;6269917;22;20000;-81
2023/03/25 09:02:49;;;;;;;20.90;4.80;;;;;;;7.51;100.00;100178.31;6269047;22;20007;-80
2023/03/25 09:05:14;;;;;;;13.23;4.55;;;;;;;7.42;100.00;100173.47;6268827;22;20018;-82
2023/03/25 09:07:40;;;;;;;18.58;4.38;;;;;;;7.37;100.00;100170.19;6269476;22;20106;-80
2023/03/25 09:10:06;;;;;;;15.23;4.85;;;;;;;7.36;100.00;100174.63;6268845;22;20549;-82
2023/03/25 09:12:32;;;;;;;18.23;5.30;;;;;;;7.52;100.00;100181.81;6268284;22;20027;-81
2023/03/25 09:14:57;;;;;;;16.08;4.88;;;;;;;7.35;100.00;100167.59;6268559;22;20437;-82
2023/03/25 09:17:23;;;;;;;18.27;5.25;;;;;;;7.28;100.00;100176.78;6268015;22;20008;-82
2023/03/25 09:19:48;;;;;;;17.58;4.90;;;;;;;7.33;100.00;100180.06;6269661;22;19999;-82
2023/03/25 09:22:14;;;;;;;17.27;4.93;;;;;;;7.34;100.00;100167.69;6269078;22;20011;-82
2023/03/25 09:24:40;;;;;;;16.63;4.63;;;;;;;7.88;100.00;100158.81;6266865;22;20318;-82
2023/03/25 09:27:06;;;;;;;18.70;4.95;;;;;;;7.99;100.00;100169.72;6266533;22;20010;-86
2023/03/25 09:29:31;;;;;;;16.63;4.97;;;;;;;7.87;100.00;100173.00;6270432;22;20008;-86
2023/03/25 09:31:58;;;;;;;25.05;5.30;;;;;;;7.83;100.00;100178.53;6269430;22;20046;-86
2023/03/25 09:34:24;;;;;;;23.10;5.72;;;;;;;7.62;100.00;100164.56;6268401;22;20272;-86
2023/03/25 09:36:50;;;;;;;15.90;5.07;;;;;;;7.54;100.00;100180.81;6271791;22;20429;-86
2023/03/25 09:39:15;;;;;;;19.13;5.43;;;;;;;7.48;100.00;100192.59;6288673;22;20019;-83
2023/03/25 09:42:12;;;;;;;20.02;5.10;;;;;;;7.64;100.00;100181.22;6282044;22;20023;-83
2023/03/25 09:45:01;;;;;;;17.83;4.93;;;;;;;7.70;100.00;100187.09;6284716;22;19999;-84
2023/03/25 09:47:32;;;;;;;16.33;4.45;;;;;;;7.61;100.00;100192.00;6273084;22;20004;-87
2023/03/25 09:50:00;;;;;;;16.98;4.57;;;;;;;7.61;100.00;100190.19;6271666;22;20008;-86
2023/03/25 09:52:46;;;;;;;15.20;4.28;;;;;;;7.60;100.00;100198.19;6269826;22;20038;-84
2023/03/25 09:55:20;;;;;;;12.63;3.33;;;;;;;7.56;100.00;100191.31;6272076;22;20421;-84
2023/03/25 09:57:48;;;;;;;;;;;;;;;7.62;100.00;100204.28;6272906;22;20010;-82
2023/03/25 10:00:19;;;;;;;12.43;4.05;;;;;;;7.73;100.00;100216.09;6275445;22;19911;-87
2023/03/25 10:02:58;;;;;;;16.73;4.47;;;;;;;7.98;100.00;100206.88;6274245;22;20113;-87
2023/03/25 10:05:38;;;;;;;12.27;3.95;;;;;;;8.87;100.00;100200.50;6243477;22;20404;-86
2023/03/25 10:08:12;;;;;;;12.95;4.03;;;;;;;10.11;100.00;100200.59;6271463;22;20609;-84
2023/03/25 10:11:00;;;;;;;17.13;4.10;;;;;;;11.34;99.55;100209.91;6270886;22;20061;-86
2023/03/25 10:13:49;;;;;;;16.08;3.90;;;;;;;12.14;95.68;100184.19;6269849;22;20122;-87
2023/03/25 10:16:34;;;;;;;14.95;4.50;;;;;;;13.09;87.00;100194.47;6269996;22;20011;-86
2023/03/25 10:19:05;;;;;;;14.50;4.07;;;;;;;14.16;80.21;100193.72;6243175;22;20098;-85
2023/03/25 10:22:02;;;;;;;17.27;4.60;;;;;;;14.51;78.58;100179.50;6269639;22;20102;-86
2023/03/25 10:24:38;;;;;;;14.77;3.88;;;;;;;14.48;75.56;100191.25;6233240;22;20091;-86
2023/03/25 10:27:24;;;;;;;15.23;3.78;;;;;;;15.10;74.47;100190.00;6270662;22;20441;-88
2023/03/25 10:30:03;;;;;;;15.52;4.07;;;;;;;14.47;74.83;100173.50;6271309;22;20100;-87
2023/03/25 10:32:38;;;;;;;14.48;3.72;;;;;;;14.70;74.41;100187.78;6270922;22;20003;-89
2023/03/25 10:35:09;;;;;;;11.85;4.10;;;;;;;15.27;67.89;100191.31;6270163;22;20030;-87
2023/03/25 10:37:40;;;;;;;15.20;4.00;;;;;;;15.33;66.78;100174.72;6271061;22;20000;-88
2023/03/25 10:40:18;;;;;;;11.40;3.58;;;;;;;14.94;69.62;100177.81;6272072;22;20007;-88
2023/03/25 10:43:17;;;;;;;15.18;3.80;;;;;;;14.54;72.74;100198.84;6271881;22;20388;-88
2023/03/25 10:45:44;;;;;;;12.18;3.28;;;;;;;13.92;67.25;100193.78;6222618;22;20035;-88
2023/03/25 10:48:14;;;;;;;12.77;3.47;;;;;;;13.55;71.66;100187.63;6272910;22;20004;-88
2023/03/25 10:50:41;;;;;;;16.85;4.07;;;;;;;13.87;69.90;100190.56;6277044;22;20011;-87
2023/03/25 10:53:17;;;;;;;15.05;4.63;;;;;;;14.73;66.29;100178.66;6275502;22;20011;-90
2023/03/25 10:55:44;;;;;;;14.63;4.07;;;;;;;14.19;67.50;100178.28;6272218;22;20003;-89
2023/03/25 10:58:16;;;;;;;15.20;4.13;;;;;;;13.07;69.94;100211.53;6272402;22;20083;-89
2023/03/25 11:00:42;;;;;;;14.60;4.20;;;;;;;14.19;67.93;100188.13;6273642;22;20080;-89
2023/03/25 11:03:17;;;;;;;14.52;3.58;;;;;;;14.03;67.69;100214.34;6271975;22;20000;-89
2023/03/25 11:05:44;;;;;;;11.23;3.72;;;;;;;13.75;66.10;100178.09;6272970;22;20476;-90
2023/03/25 11:08:10;;;;;;;13.75;4.20;;;;;;;15.02;63.63;100185.25;6273448;22;19999;-91
2023/03/25 11:10:35;;;;;;;10.95;3.30;;;;;;;15.72;58.96;100192.09;6273001;22;20048;-92
2023/03/25 11:13:03;;;;;;;7.97;2.90;;;;;;;15.80;57.14;100195.00;6246203;22;20587;-92
2023/03/25 11:15:32;;;;;;;8.32;2.65;;;;;;;16.17;53.77;100182.00;6274348;22;20531;-90
2023/03/25 11:18:11;;;;;;;10.68;2.78;;;;;;;16.62;51.90;100205.94;6273458;22;20377;-89
2023/03/25 11:20:40;;;;;;;6.53;2.50;;;;;;;17.66;47.91;100187.81;6272782;22;20187;-88
2023/03/25 11:23:26;;;;;;;7.00;2.20;;;;;;;18.57;46.91;100199.16;6244827;22;20086;-90
2023/03/25 11:25:53;;;;;;;7.35;2.22;;;;;;;18.32;44.48;100177.22;6272201;22;19999;-90
2023/03/25 11:28:31;;;;;;;6.93;2.38;;;;;;;17.08;46.17;100198.41;6273644;22;20433;-90
2023/03/25 11:31:16;;;;;;;6.63;2.33;;;;;;;15.62;50.91;100205.38;6275214;22;20015;-89
2023/03/25 11:33:44;;;;;;;11.45;2.67;;;;;;;14.73;53.21;100195.59;6269909;22;20009;-87
2023/03/25 11:36:25;;;;;;;8.15;2.95;;;;;;;14.90;53.11;100199.63;6272266;22;20031;-89